sensor_id;sensor_type;location;lat;lon;timestamp;P1;durP1;ratioP1;P2;durP2;ratioP2
1308;SDS011;647;48.840;9.314;2023-02-28T00:02:26;63.05;;;6.40;;
1308;SDS011;647;48.840;9.314;2023-02-28T00:04:53;60.65;;;5.95;;
1308;SDS011;647;48.840;9.314;2023-02-28T00:07:26;63.05;;;7.05;;
1308;SDS011;647;48.840;9.314;2023-02-28T00:09:53;62.20;;;5.93;;
1308;SDS011;647;48.840;9.314;2023-02-28T00:12:20;61.95;;;6.55;;
1308;SDS011;647;48.840;9.314;2023-02-28T00:14:49;62.17;;;6.13;;
1308;SDS011;647;48.840;9.314;2023-02-28T00:17:16;61.95;;;6.00;;
1308;SDS011;647;48.840;9.314;2023-02-28T00:19:46;61.47;;;6.30;;
1308;SDS011;647;48.840;9.314;2023-02-28T00:22:13;61.53;;;5.95;;
1308;SDS011;647;48.840;9.314;2023-02-28T00:24:40;61.08;;;6.57;;
1308;SDS011;647;48.840;9.314;2023-02-28T00:27:07;60.33;;;5.97;;
1308;SDS011;647;48.840;9.314;2023-02-28T00:29:34;63.13;;;6.05;;
1308;SDS011;647;48.840;9.314;2023-02-28T00:32:03;61.50;;;6.53;;
1308;SDS011;647;48.840;9.314;2023-02-28T00:34:31;63.67;;;7.03;;
1308;SDS011;647;48.840;9.314;2023-02-28T00:37:02;61.17;;;6.05;;
1308;SDS011;647;48.840;9.314;2023-02-28T00:39:29;60.85;;;6.22;;
1308;SDS011;647;48.840;9.314;2023-02-28T00:41:56;64.93;;;6.70;;
1308;SDS011;647;48.840;9.314;2023-02-28T00:44:23;63.38;;;6.45;;
1308;SDS011;647;48.840;9.314;2023-02-28T00:46:51;61.55;;;6.13;;
1308;SDS011;647;48.840;9.314;2023-02-28T00:49:20;62.13;;;6.50;;
1308;SDS011;647;48.840;9.314;2023-02-28T00:51:48;63.08;;;6.60;;
1308;SDS011;647;48.840;9.314;2023-02-28T00:54:15;64.00;;;6.75;;
1308;SDS011;647;48.840;9.314;2023-02-28T00:56:42;63.95;;;8.43;;
1308;SDS011;647;48.840;9.314;2023-02-28T00:59:11;62.67;;;6.05;;
1308;SDS011;647;48.840;9.314;2023-02-28T01:01:38;61.83;;;6.70;;
1308;SDS011;647;48.840;9.314;2023-02-28T01:04:05;62.60;;;6.28;;
1308;SDS011;647;48.840;9.314;2023-02-28T01:06:33;62.45;;;7.10;;
1308;SDS011;647;48.840;9.314;2023-02-28T01:09:01;61.88;;;6.22;;
1308;SDS011;647;48.840;9.314;2023-02-28T01:11:28;63.33;;;7.05;;
1308;SDS011;647;48.840;9.314;2023-02-28T01:13:55;61.13;;;6.50;;
1308;SDS011;647;48.840;9.314;2023-02-28T01:16:22;64.22;;;7.20;;
1308;SDS011;647;48.840;9.314;2023-02-28T01:18:49;62.50;;;6.70;;
1308;SDS011;647;48.840;9.314;2023-02-28T01:21:17;62.33;;;6.30;;
1308;SDS011;647;48.840;9.314;2023-02-28T01:23:46;59.92;;;6.05;;
1308;SDS011;647;48.840;9.314;2023-02-28T01:26:14;62.38;;;6.40;;
1308;SDS011;647;48.840;9.314;2023-02-28T01:28:41;62.17;;;6.72;;
1308;SDS011;647;48.840;9.314;2023-02-28T01:31:09;61.92;;;6.30;;
1308;SDS011;647;48.840;9.314;2023-02-28T01:33:36;63.83;;;7.03;;
1308;SDS011;647;48.840;9.314;2023-02-28T01:36:05;61.95;;;7.22;;
1308;SDS011;647;48.840;9.314;2023-02-28T01:38:32;64.03;;;7.43;;
1308;SDS011;647;48.840;9.314;2023-02-28T01:41:01;65.18;;;6.60;;
1308;SDS011;647;48.840;9.314;2023-02-28T01:43:52;64.00;;;6.40;;
1308;SDS011;647;48.840;9.314;2023-02-28T01:46:16;62.28;;;6.72;;
1308;SDS011;647;48.840;9.314;2023-02-28T01:48:49;63.42;;;7.22;;
1308;SDS011;647;48.840;9.314;2023-02-28T01:51:18;64.47;;;7.03;;
1308;SDS011;647;48.840;9.314;2023-02-28T01:53:47;68.85;;;6.90;;
1308;SDS011;647;48.840;9.314;2023-02-28T01:56:16;65.55;;;7.18;;
1308;SDS011;647;48.840;9.314;2023-02-28T01:58:45;63.80;;;7.22;;
1308;SDS011;647;48.840;9.314;2023-02-28T02:01:13;63.53;;;6.97;;
1308;SDS011;647;48.840;9.314;2023-02-28T02:03:46;61.95;;;6.70;;
1308;SDS011;647;48.840;9.314;2023-02-28T02:06:13;63.63;;;7.53;;
1308;SDS011;647;48.840;9.314;2023-02-28T02:08:40;63.53;;;6.80;;
1308;SDS011;647;48.840;9.314;2023-02-28T02:11:07;60.67;;;6.82;;
1308;SDS011;647;48.840;9.314;2023-02-28T02:13:41;61.58;;;6.60;;
1308;SDS011;647;48.840;9.314;2023-02-28T02:16:18;63.17;;;7.72;;
1308;SDS011;647;48.840;9.314;2023-02-28T02:18:51;62.35;;;7.80;;
1308;SDS011;647;48.840;9.314;2023-02-28T02:26:58;61.70;;;7.55;;
1308;SDS011;647;48.840;9.314;2023-02-28T02:29:42;63.88;;;7.00;;
1308;SDS011;647;48.840;9.314;2023-02-28T02:32:19;63.05;;;7.78;;
1308;SDS011;647;48.840;9.314;2023-02-28T02:34:57;63.00;;;7.03;;
1308;SDS011;647;48.840;9.314;2023-02-28T02:37:29;62.55;;;7.15;;
1308;SDS011;647;48.840;9.314;2023-02-28T02:40:00;62.38;;;7.45;;
1308;SDS011;647;48.840;9.314;2023-02-28T02:42:31;63.33;;;8.02;;
1308;SDS011;647;48.840;9.314;2023-02-28T02:45:00;63.60;;;8.18;;
1308;SDS011;647;48.840;9.314;2023-02-28T02:47:29;64.05;;;7.60;;
1308;SDS011;647;48.840;9.314;2023-02-28T02:49:59;62.65;;;7.53;;
1308;SDS011;647;48.840;9.314;2023-02-28T02:52:30;62.13;;;7.70;;
1308;SDS011;647;48.840;9.314;2023-02-28T02:54:58;63.55;;;8.10;;
1308;SDS011;647;48.840;9.314;2023-02-28T02:57:27;62.20;;;7.50;;
1308;SDS011;647;48.840;9.314;2023-02-28T02:59:56;62.15;;;7.47;;
1308;SDS011;647;48.840;9.314;2023-02-28T03:02:24;63.13;;;8.23;;
1308;SDS011;647;48.840;9.314;2023-02-28T03:04:52;64.50;;;8.75;;
1308;SDS011;647;48.840;9.314;2023-02-28T03:07:21;62.42;;;7.15;;
1308;SDS011;647;48.840;9.314;2023-02-28T03:09:52;63.10;;;7.90;;
1308;SDS011;647;48.840;9.314;2023-02-28T03:12:19;63.40;;;8.20;;
1308;SDS011;647;48.840;9.314;2023-02-28T03:14:50;63.13;;;8.32;;
1308;SDS011;647;48.840;9.314;2023-02-28T03:17:31;63.63;;;8.70;;
1308;SDS011;647;48.840;9.314;2023-02-28T03:20:07;63.42;;;7.55;;
1308;SDS011;647;48.840;9.314;2023-02-28T03:22:53;65.28;;;8.65;;
1308;SDS011;647;48.840;9.314;2023-02-28T03:25:27;62.35;;;7.45;;
1308;SDS011;647;48.840;9.314;2023-02-28T03:27:59;63.20;;;8.07;;
1308;SDS011;647;48.840;9.314;2023-02-28T03:30:29;63.85;;;7.15;;
1308;SDS011;647;48.840;9.314;2023-02-28T03:32:59;63.42;;;8.68;;
1308;SDS011;647;48.840;9.314;2023-02-28T03:35:30;62.38;;;8.00;;
1308;SDS011;647;48.840;9.314;2023-02-28T03:38:03;64.22;;;8.50;;
1308;SDS011;647;48.840;9.314;2023-02-28T03:40:32;62.35;;;7.97;;
1308;SDS011;647;48.840;9.314;2023-02-28T03:43:01;62.50;;;7.80;;
1308;SDS011;647;48.840;9.314;2023-02-28T03:45:29;65.35;;;8.57;;
1308;SDS011;647;48.840;9.314;2023-02-28T03:47:58;63.03;;;8.40;;
1308;SDS011;647;48.840;9.314;2023-02-28T03:50:29;64.82;;;8.95;;
1308;SDS011;647;48.840;9.314;2023-02-28T03:53:03;64.65;;;8.75;;
1308;SDS011;647;48.840;9.314;2023-02-28T03:55:33;64.13;;;8.25;;
1308;SDS011;647;48.840;9.314;2023-02-28T03:58:01;63.95;;;7.80;;
1308;SDS011;647;48.840;9.314;2023-02-28T04:00:31;62.40;;;7.28;;
1308;SDS011;647;48.840;9.314;2023-02-28T04:02:59;65.65;;;7.70;;
1308;SDS011;647;48.840;9.314;2023-02-28T04:05:27;63.63;;;7.75;;
1308;SDS011;647;48.840;9.314;2023-02-28T04:07:54;62.33;;;7.35;;
1308;SDS011;647;48.840;9.314;2023-02-28T04:10:31;63.10;;;7.45;;
1308;SDS011;647;48.840;9.314;2023-02-28T04:12:58;62.65;;;7.80;;
1308;SDS011;647;48.840;9.314;2023-02-28T04:15:25;63.33;;;8.10;;
1308;SDS011;647;48.840;9.314;2023-02-28T04:17:52;64.82;;;7.80;;
1308;SDS011;647;48.840;9.314;2023-02-28T04:20:19;63.70;;;8.27;;
1308;SDS011;647;48.840;9.314;2023-02-28T04:22:46;65.03;;;8.32;;
1308;SDS011;647;48.840;9.314;2023-02-28T04:25:13;62.75;;;7.68;;
1308;SDS011;647;48.840;9.314;2023-02-28T04:27:42;67.07;;;8.23;;
1308;SDS011;647;48.840;9.314;2023-02-28T04:30:10;67.45;;;8.70;;
1308;SDS011;647;48.840;9.314;2023-02-28T04:32:37;64.10;;;8.95;;
1308;SDS011;647;48.840;9.314;2023-02-28T04:35:04;65.85;;;7.93;;
1308;SDS011;647;48.840;9.314;2023-02-28T04:37:32;65.78;;;8.98;;
1308;SDS011;647;48.840;9.314;2023-02-28T04:39:59;64.10;;;8.80;;
1308;SDS011;647;48.840;9.314;2023-02-28T04:42:27;68.90;;;8.55;;
1308;SDS011;647;48.840;9.314;2023-02-28T04:45:01;66.93;;;9.23;;
1308;SDS011;647;48.840;9.314;2023-02-28T04:47:28;66.38;;;8.55;;
1308;SDS011;647;48.840;9.314;2023-02-28T04:49:56;63.33;;;8.27;;
1308;SDS011;647;48.840;9.314;2023-02-28T04:52:23;67.57;;;8.95;;
1308;SDS011;647;48.840;9.314;2023-02-28T04:54:50;68.18;;;9.75;;
1308;SDS011;647;48.840;9.314;2023-02-28T04:57:17;66.80;;;9.10;;
1308;SDS011;647;48.840;9.314;2023-02-28T04:59:44;69.75;;;11.05;;
1308;SDS011;647;48.840;9.314;2023-02-28T05:02:12;66.55;;;9.45;;
1308;SDS011;647;48.840;9.314;2023-02-28T05:04:39;64.85;;;9.27;;
1308;SDS011;647;48.840;9.314;2023-02-28T05:07:06;67.97;;;9.88;;
1308;SDS011;647;48.840;9.314;2023-02-28T05:09:34;66.57;;;9.23;;
1308;SDS011;647;48.840;9.314;2023-02-28T05:12:01;63.42;;;9.00;;
1308;SDS011;647;48.840;9.314;2023-02-28T05:14:28;70.20;;;9.27;;
1308;SDS011;647;48.840;9.314;2023-02-28T05:16:56;66.50;;;9.93;;
1308;SDS011;647;48.840;9.314;2023-02-28T05:19:24;64.60;;;8.90;;
1308;SDS011;647;48.840;9.314;2023-02-28T05:21:52;66.20;;;9.05;;
1308;SDS011;647;48.840;9.314;2023-02-28T05:24:19;65.28;;;9.13;;
1308;SDS011;647;48.840;9.314;2023-02-28T05:26:50;63.85;;;8.95;;
1308;SDS011;647;48.840;9.314;2023-02-28T05:29:17;64.07;;;9.23;;
1308;SDS011;647;48.840;9.314;2023-02-28T05:31:45;65.35;;;9.32;;
1308;SDS011;647;48.840;9.314;2023-02-28T05:34:12;65.55;;;9.60;;
1308;SDS011;647;48.840;9.314;2023-02-28T05:36:41;66.60;;;9.48;;
1308;SDS011;647;48.840;9.314;2023-02-28T05:39:09;65.53;;;9.05;;
1308;SDS011;647;48.840;9.314;2023-02-28T05:41:38;63.72;;;8.55;;
1308;SDS011;647;48.840;9.314;2023-02-28T05:44:05;64.97;;;9.32;;
1308;SDS011;647;48.840;9.314;2023-02-28T05:46:32;65.88;;;10.18;;
1308;SDS011;647;48.840;9.314;2023-02-28T05:49:00;64.85;;;10.13;;
1308;SDS011;647;48.840;9.314;2023-02-28T05:51:27;68.22;;;9.85;;
1308;SDS011;647;48.840;9.314;2023-02-28T05:53:57;69.00;;;11.23;;
1308;SDS011;647;48.840;9.314;2023-02-28T05:56:25;68.78;;;10.95;;
1308;SDS011;647;48.840;9.314;2023-02-28T05:58:52;65.00;;;10.45;;
1308;SDS011;647;48.840;9.314;2023-02-28T06:01:20;65.00;;;9.27;;
1308;SDS011;647;48.840;9.314;2023-02-28T06:03:47;65.97;;;9.15;;
1308;SDS011;647;48.840;9.314;2023-02-28T06:06:15;65.55;;;9.05;;
1308;SDS011;647;48.840;9.314;2023-02-28T06:08:42;64.05;;;9.10;;
1308;SDS011;647;48.840;9.314;2023-02-28T06:11:11;64.75;;;8.80;;
1308;SDS011;647;48.840;9.314;2023-02-28T06:13:38;69.28;;;10.02;;
1308;SDS011;647;48.840;9.314;2023-02-28T06:16:05;65.70;;;9.27;;
1308;SDS011;647;48.840;9.314;2023-02-28T06:18:32;65.93;;;8.77;;
1308;SDS011;647;48.840;9.314;2023-02-28T06:21:00;64.82;;;8.25;;
1308;SDS011;647;48.840;9.314;2023-02-28T06:23:27;66.78;;;10.07;;
1308;SDS011;647;48.840;9.314;2023-02-28T06:25:54;66.45;;;9.15;;
1308;SDS011;647;48.840;9.314;2023-02-28T06:28:24;64.40;;;9.10;;
1308;SDS011;647;48.840;9.314;2023-02-28T06:30:51;67.80;;;10.35;;
1308;SDS011;647;48.840;9.314;2023-02-28T06:33:18;65.25;;;9.43;;
1308;SDS011;647;48.840;9.314;2023-02-28T06:35:46;67.78;;;10.13;;
1308;SDS011;647;48.840;9.314;2023-02-28T06:38:14;65.60;;;9.65;;
1308;SDS011;647;48.840;9.314;2023-02-28T06:40:41;66.72;;;9.32;;
1308;SDS011;647;48.840;9.314;2023-02-28T06:43:08;66.47;;;9.90;;
1308;SDS011;647;48.840;9.314;2023-02-28T06:45:42;67.45;;;9.88;;
1308;SDS011;647;48.840;9.314;2023-02-28T06:48:09;73.07;;;9.77;;
1308;SDS011;647;48.840;9.314;2023-02-28T06:50:36;63.95;;;8.95;;
1308;SDS011;647;48.840;9.314;2023-02-28T06:53:03;66.63;;;10.32;;
1308;SDS011;647;48.840;9.314;2023-02-28T06:55:30;67.43;;;10.98;;
1308;SDS011;647;48.840;9.314;2023-02-28T06:57:57;67.85;;;10.30;;
1308;SDS011;647;48.840;9.314;2023-02-28T07:00:25;64.85;;;9.48;;
1308;SDS011;647;48.840;9.314;2023-02-28T07:02:53;67.88;;;9.85;;
1308;SDS011;647;48.840;9.314;2023-02-28T07:05:20;65.72;;;9.45;;
1308;SDS011;647;48.840;9.314;2023-02-28T07:07:47;66.25;;;9.05;;
1308;SDS011;647;48.840;9.314;2023-02-28T07:10:15;65.55;;;9.52;;
1308;SDS011;647;48.840;9.314;2023-02-28T07:12:42;66.03;;;9.68;;
1308;SDS011;647;48.840;9.314;2023-02-28T07:15:10;67.18;;;10.00;;
1308;SDS011;647;48.840;9.314;2023-02-28T07:17:37;67.40;;;10.40;;
1308;SDS011;647;48.840;9.314;2023-02-28T07:20:06;65.65;;;10.07;;
1308;SDS011;647;48.840;9.314;2023-02-28T07:22:34;65.53;;;9.38;;
1308;SDS011;647;48.840;9.314;2023-02-28T07:25:01;67.50;;;11.32;;
1308;SDS011;647;48.840;9.314;2023-02-28T07:27:28;69.15;;;10.38;;
1308;SDS011;647;48.840;9.314;2023-02-28T07:29:55;65.75;;;9.80;;
1308;SDS011;647;48.840;9.314;2023-02-28T07:32:22;66.07;;;10.30;;
1308;SDS011;647;48.840;9.314;2023-02-28T07:34:49;68.20;;;10.45;;
1308;SDS011;647;48.840;9.314;2023-02-28T07:37:18;68.18;;;10.57;;
1308;SDS011;647;48.840;9.314;2023-02-28T07:39:45;68.30;;;10.13;;
1308;SDS011;647;48.840;9.314;2023-02-28T07:42:12;64.80;;;9.98;;
1308;SDS011;647;48.840;9.314;2023-02-28T07:44:39;68.60;;;11.38;;
1308;SDS011;647;48.840;9.314;2023-02-28T07:47:07;67.22;;;10.02;;
1308;SDS011;647;48.840;9.314;2023-02-28T07:49:35;70.05;;;10.93;;
1308;SDS011;647;48.840;9.314;2023-02-28T07:52:03;66.68;;;10.50;;
1308;SDS011;647;48.840;9.314;2023-02-28T07:54:31;68.53;;;10.25;;
1308;SDS011;647;48.840;9.314;2023-02-28T07:56:58;65.32;;;10.52;;
1308;SDS011;647;48.840;9.314;2023-02-28T07:59:26;65.03;;;10.50;;
1308;SDS011;647;48.840;9.314;2023-02-28T08:01:53;66.28;;;10.93;;
1308;SDS011;647;48.840;9.314;2023-02-28T08:04:20;67.65;;;10.60;;
1308;SDS011;647;48.840;9.314;2023-02-28T08:06:47;66.07;;;10.60;;
1308;SDS011;647;48.840;9.314;2023-02-28T08:09:16;65.30;;;10.27;;
1308;SDS011;647;48.840;9.314;2023-02-28T08:11:45;70.82;;;9.52;;
1308;SDS011;647;48.840;9.314;2023-02-28T08:14:12;67.32;;;10.02;;
1308;SDS011;647;48.840;9.314;2023-02-28T08:16:39;67.72;;;10.07;;
1308;SDS011;647;48.840;9.314;2023-02-28T08:19:07;67.68;;;10.15;;
1308;SDS011;647;48.840;9.314;2023-02-28T08:21:35;64.75;;;9.77;;
1308;SDS011;647;48.840;9.314;2023-02-28T08:24:02;67.10;;;10.70;;
1308;SDS011;647;48.840;9.314;2023-02-28T08:26:29;68.28;;;10.95;;
1308;SDS011;647;48.840;9.314;2023-02-28T08:28:57;67.95;;;9.98;;
1308;SDS011;647;48.840;9.314;2023-02-28T08:31:24;70.85;;;12.50;;
1308;SDS011;647;48.840;9.314;2023-02-28T08:33:51;67.70;;;11.23;;
1308;SDS011;647;48.840;9.314;2023-02-28T08:36:21;67.85;;;10.88;;
1308;SDS011;647;48.840;9.314;2023-02-28T08:38:49;68.80;;;12.18;;
1308;SDS011;647;48.840;9.314;2023-02-28T08:41:16;71.03;;;9.95;;
1308;SDS011;647;48.840;9.314;2023-02-28T08:43:43;68.45;;;10.10;;
1308;SDS011;647;48.840;9.314;2023-02-28T08:46:12;67.47;;;10.20;;
1308;SDS011;647;48.840;9.314;2023-02-28T08:48:39;66.57;;;10.68;;
1308;SDS011;647;48.840;9.314;2023-02-28T08:51:07;68.32;;;11.40;;
1308;SDS011;647;48.840;9.314;2023-02-28T08:53:35;65.40;;;10.48;;
1308;SDS011;647;48.840;9.314;2023-02-28T08:56:04;68.45;;;11.40;;
1308;SDS011;647;48.840;9.314;2023-02-28T08:58:31;65.80;;;9.95;;
1308;SDS011;647;48.840;9.314;2023-02-28T09:00:59;67.22;;;11.30;;
1308;SDS011;647;48.840;9.314;2023-02-28T09:03:28;67.65;;;11.10;;
1308;SDS011;647;48.840;9.314;2023-02-28T09:05:55;65.30;;;9.82;;
1308;SDS011;647;48.840;9.314;2023-02-28T09:08:23;67.70;;;10.63;;
1308;SDS011;647;48.840;9.314;2023-02-28T09:10:50;65.97;;;10.45;;
1308;SDS011;647;48.840;9.314;2023-02-28T09:13:18;66.25;;;10.40;;
1308;SDS011;647;48.840;9.314;2023-02-28T09:15:45;67.55;;;11.10;;
1308;SDS011;647;48.840;9.314;2023-02-28T09:18:12;66.43;;;11.50;;
1308;SDS011;647;48.840;9.314;2023-02-28T09:20:41;66.47;;;10.65;;
1308;SDS011;647;48.840;9.314;2023-02-28T09:23:08;65.78;;;10.05;;
1308;SDS011;647;48.840;9.314;2023-02-28T09:25:36;67.45;;;10.38;;
1308;SDS011;647;48.840;9.314;2023-02-28T09:28:03;69.10;;;12.10;;
1308;SDS011;647;48.840;9.314;2023-02-28T09:30:30;67.28;;;11.15;;
1308;SDS011;647;48.840;9.314;2023-02-28T09:32:57;66.88;;;11.05;;
1308;SDS011;647;48.840;9.314;2023-02-28T09:35:24;66.70;;;10.23;;
1308;SDS011;647;48.840;9.314;2023-02-28T09:37:53;67.60;;;10.20;;
1308;SDS011;647;48.840;9.314;2023-02-28T09:40:21;67.22;;;11.70;;
1308;SDS011;647;48.840;9.314;2023-02-28T09:42:49;69.65;;;10.35;;
1308;SDS011;647;48.840;9.314;2023-02-28T09:45:19;66.03;;;10.00;;
1308;SDS011;647;48.840;9.314;2023-02-28T09:47:48;67.70;;;10.52;;
1308;SDS011;647;48.840;9.314;2023-02-28T09:50:17;70.35;;;11.52;;
1308;SDS011;647;48.840;9.314;2023-02-28T09:52:48;66.78;;;10.80;;
1308;SDS011;647;48.840;9.314;2023-02-28T09:55:20;68.60;;;11.35;;
1308;SDS011;647;48.840;9.314;2023-02-28T09:57:48;67.53;;;10.23;;
1308;SDS011;647;48.840;9.314;2023-02-28T10:00:17;65.20;;;10.63;;
1308;SDS011;647;48.840;9.314;2023-02-28T10:02:51;67.05;;;11.65;;
1308;SDS011;647;48.840;9.314;2023-02-28T10:05:23;68.85;;;11.52;;
1308;SDS011;647;48.840;9.314;2023-02-28T10:07:55;68.93;;;12.20;;
1308;SDS011;647;48.840;9.314;2023-02-28T10:10:26;68.20;;;11.02;;
1308;SDS011;647;48.840;9.314;2023-02-28T10:12:55;67.05;;;10.98;;
1308;SDS011;647;48.840;9.314;2023-02-28T10:15:23;69.30;;;11.27;;
1308;SDS011;647;48.840;9.314;2023-02-28T10:17:51;67.50;;;12.23;;
1308;SDS011;647;48.840;9.314;2023-02-28T10:20:20;67.30;;;11.77;;
1308;SDS011;647;48.840;9.314;2023-02-28T10:22:56;65.78;;;11.23;;
1308;SDS011;647;48.840;9.314;2023-02-28T10:25:27;67.65;;;10.80;;
1308;SDS011;647;48.840;9.314;2023-02-28T10:27:54;68.75;;;11.32;;
1308;SDS011;647;48.840;9.314;2023-02-28T10:30:24;69.70;;;10.43;;
1308;SDS011;647;48.840;9.314;2023-02-28T10:32:51;67.07;;;10.85;;
1308;SDS011;647;48.840;9.314;2023-02-28T10:35:20;67.15;;;10.32;;
1308;SDS011;647;48.840;9.314;2023-02-28T10:37:48;70.63;;;11.43;;
1308;SDS011;647;48.840;9.314;2023-02-28T10:40:28;66.03;;;11.00;;
1308;SDS011;647;48.840;9.314;2023-02-28T10:42:56;67.10;;;11.00;;
1308;SDS011;647;48.840;9.314;2023-02-28T10:45:23;68.90;;;11.75;;
1308;SDS011;647;48.840;9.314;2023-02-28T10:47:54;69.13;;;11.40;;
1308;SDS011;647;48.840;9.314;2023-02-28T10:53:17;66.97;;;11.18;;
1308;SDS011;647;48.840;9.314;2023-02-28T10:55:57;66.35;;;10.85;;
1308;SDS011;647;48.840;9.314;2023-02-28T10:58:26;66.72;;;11.35;;
1308;SDS011;647;48.840;9.314;2023-02-28T11:00:54;65.53;;;11.00;;
1308;SDS011;647;48.840;9.314;2023-02-28T11:03:25;66.70;;;11.30;;
1308;SDS011;647;48.840;9.314;2023-02-28T11:05:55;66.63;;;10.67;;
1308;SDS011;647;48.840;9.314;2023-02-28T11:08:22;66.30;;;11.90;;
1308;SDS011;647;48.840;9.314;2023-02-28T11:10:53;66.37;;;11.70;;
1308;SDS011;647;48.840;9.314;2023-02-28T11:13:26;66.13;;;10.83;;
1308;SDS011;647;48.840;9.314;2023-02-28T11:15:54;70.33;;;10.97;;
1308;SDS011;647;48.840;9.314;2023-02-28T11:18:23;66.57;;;11.20;;
1308;SDS011;647;48.840;9.314;2023-02-28T11:20:52;66.30;;;11.43;;
1308;SDS011;647;48.840;9.314;2023-02-28T11:23:20;68.27;;;12.07;;
1308;SDS011;647;48.840;9.314;2023-02-28T11:25:49;65.43;;;11.03;;
1308;SDS011;647;48.840;9.314;2023-02-28T11:28:25;67.53;;;11.20;;
1308;SDS011;647;48.840;9.314;2023-02-28T11:31:02;67.73;;;12.20;;
1308;SDS011;647;48.840;9.314;2023-02-28T11:33:30;67.80;;;10.90;;
1308;SDS011;647;48.840;9.314;2023-02-28T11:35:59;68.13;;;11.73;;
1308;SDS011;647;48.840;9.314;2023-02-28T11:38:27;65.87;;;11.20;;
1308;SDS011;647;48.840;9.314;2023-02-28T11:41:06;65.80;;;10.97;;
1308;SDS011;647;48.840;9.314;2023-02-28T11:43:52;64.93;;;10.70;;
1308;SDS011;647;48.840;9.314;2023-02-28T11:46:26;65.20;;;11.10;;
1308;SDS011;647;48.840;9.314;2023-02-28T11:48:58;63.37;;;10.50;;
1308;SDS011;647;48.840;9.314;2023-02-28T11:51:30;66.17;;;11.73;;
1308;SDS011;647;48.840;9.314;2023-02-28T11:54:08;63.57;;;10.90;;
1308;SDS011;647;48.840;9.314;2023-02-28T11:56:39;65.90;;;11.37;;
1308;SDS011;647;48.840;9.314;2023-02-28T11:59:14;64.47;;;10.90;;
1308;SDS011;647;48.840;9.314;2023-02-28T12:01:54;65.97;;;10.90;;
1308;SDS011;647;48.840;9.314;2023-02-28T12:04:28;64.60;;;10.50;;
1308;SDS011;647;48.840;9.314;2023-02-28T12:07:00;66.97;;;10.13;;
1308;SDS011;647;48.840;9.314;2023-02-28T12:09:35;62.93;;;9.93;;
1308;SDS011;647;48.840;9.314;2023-02-28T12:12:07;63.97;;;11.00;;
1308;SDS011;647;48.840;9.314;2023-02-28T12:14:53;67.13;;;10.83;;
1308;SDS011;647;48.840;9.314;2023-02-28T12:17:29;65.03;;;10.87;;
1308;SDS011;647;48.840;9.314;2023-02-28T12:20:02;64.70;;;11.30;;
1308;SDS011;647;48.840;9.314;2023-02-28T12:22:34;65.60;;;11.60;;
1308;SDS011;647;48.840;9.314;2023-02-28T12:27:55;65.20;;;10.60;;
1308;SDS011;647;48.840;9.314;2023-02-28T12:30:24;64.33;;;10.83;;
1308;SDS011;647;48.840;9.314;2023-02-28T12:32:53;63.97;;;10.80;;
1308;SDS011;647;48.840;9.314;2023-02-28T12:35:23;65.10;;;11.70;;
1308;SDS011;647;48.840;9.314;2023-02-28T12:37:52;68.87;;;13.40;;
1308;SDS011;647;48.840;9.314;2023-02-28T12:40:23;66.67;;;11.10;;
1308;SDS011;647;48.840;9.314;2023-02-28T12:42:51;63.97;;;9.70;;
1308;SDS011;647;48.840;9.314;2023-02-28T12:45:20;63.63;;;9.90;;
1308;SDS011;647;48.840;9.314;2023-02-28T12:47:50;63.07;;;10.10;;
1308;SDS011;647;48.840;9.314;2023-02-28T12:50:19;64.20;;;10.40;;
1308;SDS011;647;48.840;9.314;2023-02-28T12:52:48;64.00;;;10.30;;
1308;SDS011;647;48.840;9.314;2023-02-28T12:55:20;62.77;;;9.30;;
1308;SDS011;647;48.840;9.314;2023-02-28T12:57:51;62.97;;;9.17;;
1308;SDS011;647;48.840;9.314;2023-02-28T13:00:24;64.10;;;10.73;;
1308;SDS011;647;48.840;9.314;2023-02-28T13:02:57;63.87;;;10.83;;
1308;SDS011;647;48.840;9.314;2023-02-28T13:05:50;65.23;;;10.33;;
1308;SDS011;647;48.840;9.314;2023-02-28T13:11:07;62.67;;;10.37;;
1308;SDS011;647;48.840;9.314;2023-02-28T13:13:50;63.07;;;10.17;;
1308;SDS011;647;48.840;9.314;2023-02-28T13:16:23;63.70;;;9.80;;
1308;SDS011;647;48.840;9.314;2023-02-28T13:18:52;63.30;;;9.63;;
1308;SDS011;647;48.840;9.314;2023-02-28T13:21:41;63.63;;;9.93;;
1308;SDS011;647;48.840;9.314;2023-02-28T13:24:09;63.27;;;9.40;;
1308;SDS011;647;48.840;9.314;2023-02-28T13:29:27;63.40;;;10.10;;
1308;SDS011;647;48.840;9.314;2023-02-28T13:34:46;63.70;;;9.60;;
1308;SDS011;647;48.840;9.314;2023-02-28T13:37:31;61.70;;;9.60;;
1308;SDS011;647;48.840;9.314;2023-02-28T13:40:06;63.67;;;10.40;;
1308;SDS011;647;48.840;9.314;2023-02-28T13:42:34;62.57;;;9.07;;
1308;SDS011;647;48.840;9.314;2023-02-28T13:45:21;63.77;;;10.27;;
1308;SDS011;647;48.840;9.314;2023-02-28T13:47:51;64.27;;;9.80;;
1308;SDS011;647;48.840;9.314;2023-02-28T13:50:26;63.23;;;9.50;;
1308;SDS011;647;48.840;9.314;2023-02-28T13:52:57;62.63;;;9.17;;
1308;SDS011;647;48.840;9.314;2023-02-28T13:55:27;64.17;;;10.27;;
1308;SDS011;647;48.840;9.314;2023-02-28T13:58:08;63.03;;;9.67;;
1308;SDS011;647;48.840;9.314;2023-02-28T14:00:42;63.00;;;10.37;;
1308;SDS011;647;48.840;9.314;2023-02-28T14:03:14;62.73;;;9.93;;
1308;SDS011;647;48.840;9.314;2023-02-28T14:05:45;63.30;;;10.80;;
1308;SDS011;647;48.840;9.314;2023-02-28T14:08:13;67.30;;;10.27;;
1308;SDS011;647;48.840;9.314;2023-02-28T14:10:43;63.57;;;9.50;;
1308;SDS011;647;48.840;9.314;2023-02-28T14:15:58;62.40;;;9.60;;
1308;SDS011;647;48.840;9.314;2023-02-28T14:18:28;62.03;;;9.13;;
1308;SDS011;647;48.840;9.314;2023-02-28T14:21:08;63.83;;;9.77;;
1308;SDS011;647;48.840;9.314;2023-02-28T14:29:24;64.30;;;10.10;;
1308;SDS011;647;48.840;9.314;2023-02-28T14:31:58;64.50;;;9.70;;
1308;SDS011;647;48.840;9.314;2023-02-28T14:34:35;63.67;;;10.57;;
1308;SDS011;647;48.840;9.314;2023-02-28T14:37:04;66.90;;;10.80;;
1308;SDS011;647;48.840;9.314;2023-02-28T14:39:32;62.10;;;9.27;;
1308;SDS011;647;48.840;9.314;2023-02-28T14:42:01;63.10;;;9.80;;
1308;SDS011;647;48.840;9.314;2023-02-28T14:44:31;62.00;;;9.30;;
1308;SDS011;647;48.840;9.314;2023-02-28T14:46:59;63.60;;;10.83;;
1308;SDS011;647;48.840;9.314;2023-02-28T14:49:29;62.80;;;10.60;;
1308;SDS011;647;48.840;9.314;2023-02-28T14:52:01;63.17;;;10.40;;
1308;SDS011;647;48.840;9.314;2023-02-28T14:54:28;62.13;;;9.73;;
1308;SDS011;647;48.840;9.314;2023-02-28T14:56:56;63.80;;;11.17;;
1308;SDS011;647;48.840;9.314;2023-02-28T14:59:24;64.63;;;10.43;;
1308;SDS011;647;48.840;9.314;2023-02-28T15:01:53;64.47;;;10.90;;
1308;SDS011;647;48.840;9.314;2023-02-28T15:04:34;64.43;;;10.57;;
1308;SDS011;647;48.840;9.314;2023-02-28T15:07:07;64.30;;;10.37;;
1308;SDS011;647;48.840;9.314;2023-02-28T15:09:34;64.13;;;10.73;;
1308;SDS011;647;48.840;9.314;2023-02-28T15:12:01;66.47;;;11.13;;
1308;SDS011;647;48.840;9.314;2023-02-28T15:14:28;63.40;;;10.80;;
1308;SDS011;647;48.840;9.314;2023-02-28T15:16:57;64.70;;;10.83;;
1308;SDS011;647;48.840;9.314;2023-02-28T15:19:26;64.80;;;10.77;;
1308;SDS011;647;48.840;9.314;2023-02-28T15:21:56;65.83;;;11.70;;
1308;SDS011;647;48.840;9.314;2023-02-28T15:24:28;64.50;;;11.17;;
1308;SDS011;647;48.840;9.314;2023-02-28T15:26:58;66.27;;;11.10;;
1308;SDS011;647;48.840;9.314;2023-02-28T15:29:26;69.20;;;11.57;;
1308;SDS011;647;48.840;9.314;2023-02-28T15:31:57;65.37;;;11.47;;
1308;SDS011;647;48.840;9.314;2023-02-28T15:34:28;65.60;;;11.27;;
1308;SDS011;647;48.840;9.314;2023-02-28T15:36:56;67.37;;;12.27;;
1308;SDS011;647;48.840;9.314;2023-02-28T15:39:24;64.33;;;10.07;;
1308;SDS011;647;48.840;9.314;2023-02-28T15:41:52;67.07;;;11.03;;
1308;SDS011;647;48.840;9.314;2023-02-28T15:44:26;65.27;;;10.40;;
1308;SDS011;647;48.840;9.314;2023-02-28T15:46:56;67.50;;;10.30;;
1308;SDS011;647;48.840;9.314;2023-02-28T15:49:24;67.87;;;10.53;;
1308;SDS011;647;48.840;9.314;2023-02-28T15:51:52;66.60;;;11.47;;